Time;durP1;ratioP1;P1;durP2;ratioP2;P2;SDS_P1;SDS_P2;PMS_P1;PMS_P2;Temp;Humidity;BMP_temperature;BMP_pressure;BME280_temperature;BME280_humidity;BME280_pressure;Samples;Min_cycle;Max_cycle;Signal;HPM_P1;HPM_P2
2021/01/27 00:00:39;;;;;;;;;;;;;;;5.42;82.45;100173.88;1867189;77;20194;-41
2021/01/27 00:03:07;;;;;;;;;;;;;;;5.42;82.27;100178.65;1867357;77;20178;-46
2021/01/27 00:05:36;;;;;;;;;;;;;;;5.44;82.08;100177.34;1867478;77;20376;-39
2021/01/27 00:08:05;;;;;;;;;;;;;;;5.47;81.79;100181.22;1867533;77;20403;-40
2021/01/27 00:10:34;;;;;;;;;;;;;;;5.50;81.53;100178.19;1867318;77;20129;-40
2021/01/27 00:13:02;;;;;;;;;;;;;;;5.52;81.25;100169.92;1876917;75;20171;-39
2021/01/27 00:15:32;;;;;;;;;;;;;;;5.53;81.15;100163.85;1882825;75;20132;-39
2021/01/27 00:18:00;;;;;;;;;;;;;;;5.52;81.10;100160.82;1879591;75;20251;-39
2021/01/27 00:20:28;;;;;;;;;;;;;;;5.51;81.06;100149.98;1886589;75;20238;-39
2021/01/27 00:22:57;;;;;;;;;;;;;;;5.51;81.01;100146.09;1867484;77;20221;-39
2021/01/27 00:25:29;;;;;;;;;;;;;;;5.50;81.04;100149.59;1871983;75;20268;-39
2021/01/27 00:27:57;;;;;;;;;;;;;;;5.48;81.04;100137.02;1866916;77;20265;-39
2021/01/27 00:30:27;;;;;;;;;;;;;;;5.49;81.01;100133.98;1867152;77;20400;-38
2021/01/27 00:32:55;;;;;;;;;;;;;;;5.51;80.90;100136.16;1867500;77;20146;-38
2021/01/27 00:35:26;;;;;;;;;;;;;;;5.50;80.83;100127.48;1889060;75;20266;-38
2021/01/27 00:37:54;;;;;;;;;;;;;;;5.52;80.54;100117.05;1902479;75;20172;-39
2021/01/27 00:40:22;;;;;;;;;;;;;;;5.55;80.37;100126.16;1902347;75;20176;-40
2021/01/27 00:42:50;;;;;;;;;;;;;;;5.52;80.24;100113.16;1902557;75;20148;-39
2021/01/27 00:45:19;;;;;;;;;;;;;;;5.50;80.25;100114.92;1902169;75;20179;-40
2021/01/27 00:47:47;;;;;;;;;;;;;;;5.46;80.22;100122.30;1902490;75;20271;-41
2021/01/27 00:50:15;;;;;;;;;;;;;;;5.44;80.21;100114.95;1902367;75;20120;-40
2021/01/27 00:52:44;;;;;;;;;;;;;;;5.42;80.20;100105.00;1868295;75;20136;-39
2021/01/27 00:55:15;;;;;;;;;;;;;;;5.40;80.24;100105.00;1902453;75;20461;-40
2021/01/27 00:57:43;;;;;;;;;;;;;;;5.39;80.23;100103.70;1902340;75;20144;-40
2021/01/27 01:00:17;;;;;;;;;;;;;;;5.37;80.19;100098.97;1902543;75;20129;-40
2021/01/27 01:02:45;;;;;;;;;;;;;;;5.36;80.19;100110.23;1901227;75;20511;-43
2021/01/27 01:05:16;;;;;;;;;;;;;;;5.33;80.26;100105.89;1902528;75;20137;-39
2021/01/27 01:07:47;;;;;;;;;;;;;;;5.31;80.32;100105.50;1902534;75;20191;-39
2021/01/27 01:10:22;;;;;;;;;;;;;;;5.29;80.33;100103.33;1902265;75;20143;-40
2021/01/27 01:12:49;;;;;;;;;;;;;;;5.28;80.42;100102.89;1902262;75;20243;-38
2021/01/27 01:15:17;;;;;;;;;;;;;;;5.25;80.50;100095.97;1902519;75;20159;-39
2021/01/27 01:17:45;;;;;;;;;;;;;;;5.22;80.55;100094.70;1902542;75;20700;-40
2021/01/27 01:20:14;;;;;;;;;;;;;;;5.21;80.56;100091.23;1902593;75;20124;-39
2021/01/27 01:22:45;;;;;;;;;;;;;;;5.25;80.51;100100.33;1902322;75;20183;-38
2021/01/27 01:25:14;;;;;;;;;;;;;;;5.24;80.50;100098.16;1902067;75;20172;-38
2021/01/27 01:27:42;;;;;;;;;;;;;;;5.22;80.53;100099.90;1902544;75;20485;-40
2021/01/27 01:30:22;;;;;;;;;;;;;;;5.17;80.63;100088.23;1902341;75;20124;-39
2021/01/27 01:32:54;;;;;;;;;;;;;;;5.14;80.69;100088.66;1902610;75;20362;-38
2021/01/27 01:35:24;;;;;;;;;;;;;;;5.13;80.78;100085.63;1902378;75;20184;-37
2021/01/27 01:37:51;;;;;;;;;;;;;;;5.13;80.88;100086.94;1902274;75;20164;-39
2021/01/27 01:40:24;;;;;;;;;;;;;;;5.11;80.94;100088.27;1902345;75;20128;-40
2021/01/27 01:43:04;;;;;;;;;;;;;;;5.12;80.93;100086.07;1902641;75;20191;-38
2021/01/27 01:45:46;;;;;;;;;;;;;;;5.15;80.95;100084.77;1868224;75;20278;-38
2021/01/27 01:48:32;;;;;;;;;;;;;;;5.14;80.91;100076.55;1902218;75;20152;-38
2021/01/27 01:51:18;;;;;;;;;;;;;;;5.18;80.87;100073.52;1902430;75;20136;-44
2021/01/27 01:53:48;;;;;;;;;;;;;;;5.19;80.81;100067.41;1902392;75;20120;-38
2021/01/27 01:56:18;;;;;;;;;;;;;;;5.21;80.68;100066.98;1902453;75;20167;-37
2021/01/27 01:58:46;;;;;;;;;;;;;;;5.20;80.69;100067.41;1902238;75;20120;-38
2021/01/27 02:01:13;;;;;;;;;;;;;;;5.21;80.62;100058.75;1902401;75;20128;-39
2021/01/27 02:03:43;;;;;;;;;;;;;;;5.20;80.57;100063.52;1902603;75;20187;-39
2021/01/27 02:06:11;;;;;;;;;;;;;;;5.19;80.67;100063.52;1902359;75;20446;-39
2021/01/27 02:08:42;;;;;;;;;;;;;;;5.19;80.68;100058.32;1902228;75;20132;-39
2021/01/27 02:11:11;;;;;;;;;;;;;;;5.18;80.71;100056.63;1869105;75;20390;-39
2021/01/27 02:13:51;;;;;;;;;;;;;;;5.17;80.78;100056.19;1869174;75;20174;-39
2021/01/27 02:16:28;;;;;;;;;;;;;;;5.15;80.84;100062.69;1878769;75;20156;-38
2021/01/27 02:19:17;;;;;;;;;;;;;;;5.13;80.94;100057.05;1866294;77;20396;-38
2021/01/27 02:22:13;;;;;;;;;;;;;;;5.10;81.04;100056.66;1804103;77;20198;-40
2021/01/27 02:27:02;;;;;;;;;;;;;;;5.11;81.20;100040.20;1910817;74;20137;-39
2021/01/27 02:29:46;;;;;;;;;;;;;;;5.08;81.28;100044.09;1850419;76;20176;-40
2021/01/27 02:32:44;;;;;;;;;;;;;;;5.09;81.31;100039.34;1902381;75;20394;-40
2021/01/27 02:35:31;;;;;;;;;;;;;;;5.09;81.32;100040.63;1903310;75;20187;-39
2021/01/27 02:38:05;;;;;;;;;;;;;;;5.08;81.36;100041.93;1903250;75;20171;-39
2021/01/27 02:40:37;;;;;;;;;;;;;;;5.08;81.42;100044.53;1903009;75;20132;-38
2021/01/27 02:43:13;;;;;;;;;;;;;;;5.07;81.48;100041.06;1903089;75;20144;-39
2021/01/27 02:45:44;;;;;;;;;;;;;;;5.07;81.52;100038.47;1900850;75;20128;-39
2021/01/27 02:48:15;;;;;;;;;;;;;;;5.07;81.56;100042.37;1867861;77;20396;-39
2021/01/27 02:50:44;;;;;;;;;;;;;;;5.09;81.70;100044.97;1867909;77;20392;-40
2021/01/27 02:53:28;;;;;;;;;;;;;;;5.07;81.80;100044.97;1868046;77;20182;-38
2021/01/27 02:55:58;;;;;;;;;;;;;;;5.08;81.86;100049.73;1867944;77;20135;-39
2021/01/27 02:58:32;;;;;;;;;;;;;;;5.07;81.90;100044.97;1868078;77;20174;-39
2021/01/27 03:01:05;;;;;;;;;;;;;;;5.07;81.94;100038.47;1868113;77;20209;-40
2021/01/27 03:03:39;;;;;;;;;;;;;;;5.10;81.97;100043.66;1864849;77;20131;-39
2021/01/27 03:06:09;;;;;;;;;;;;;;;5.12;81.91;100041.90;1868009;77;20162;-40
2021/01/27 03:08:40;;;;;;;;;;;;;;;5.10;81.91;100026.78;1867950;77;20142;-40
2021/01/27 03:11:14;;;;;;;;;;;;;;;5.12;81.92;100023.71;1835657;77;20126;-39
2021/01/27 03:13:44;;;;;;;;;;;;;;;5.10;81.89;100016.38;1867793;76;20269;-40
2021/01/27 03:16:15;;;;;;;;;;;;;;;5.09;81.93;100006.86;1867890;77;20158;-40
2021/01/27 03:18:45;;;;;;;;;;;;;;;5.08;81.94;99989.55;1868245;77;20616;-39
2021/01/27 03:21:17;;;;;;;;;;;;;;;5.10;81.96;99987.81;1867872;77;20162;-39
2021/01/27 03:23:55;;;;;;;;;;;;;;;5.09;81.88;99986.08;1868009;77;20178;-39
2021/01/27 03:26:44;;;;;;;;;;;;;;;5.07;81.90;99987.81;1867871;77;20166;-41
2021/01/27 03:29:31;;;;;;;;;;;;;;;5.03;81.88;99978.32;1867845;77;20178;-38
2021/01/27 03:31:59;;;;;;;;;;;;;;;4.97;81.96;99984.85;1862045;77;20400;-38
2021/01/27 03:34:38;;;;;;;;;;;;;;;4.95;82.15;99989.19;1868167;77;20424;-39
2021/01/27 03:37:12;;;;;;;;;;;;;;;4.99;82.21;99993.95;1867826;77;20131;-39
2021/01/27 03:39:42;;;;;;;;;;;;;;;5.02;82.14;99986.98;1876056;75;20226;-39
2021/01/27 03:42:13;;;;;;;;;;;;;;;5.01;82.03;99972.27;1867286;77;20133;-39
2021/01/27 03:44:49;;;;;;;;;;;;;;;5.02;82.06;99971.39;1867088;77;20131;-39
2021/01/27 03:47:22;;;;;;;;;;;;;;;5.01;81.97;99968.80;1867329;77;20162;-39
2021/01/27 03:50:00;;;;;;;;;;;;;;;5.02;81.97;99961.44;1867441;77;20380;-39
2021/01/27 03:52:37;;;;;;;;;;;;;;;5.07;81.84;99955.77;1867435;77;20190;-39
2021/01/27 03:55:20;;;;;;;;;;;;;;;5.06;81.68;99954.91;1867385;77;20158;-38
2021/01/27 03:58:00;;;;;;;;;;;;;;;5.04;81.64;99958.41;1867298;77;20158;-38
2021/01/27 04:00:30;;;;;;;;;;;;;;;5.03;81.61;99969.23;1829473;78;20200;-40
2021/01/27 04:03:00;;;;;;;;;;;;;;;5.08;81.45;99968.75;1796980;80;20167;-40
2021/01/27 04:05:28;;;;;;;;;;;;;;;5.13;81.23;99959.19;1797126;80;20157;-38
2021/01/27 04:07:56;;;;;;;;;;;;;;;5.17;81.06;99962.22;1788270;80;20200;-38
2021/01/27 04:10:24;;;;;;;;;;;;;;;5.19;80.91;99956.98;1797104;79;20135;-39
2021/01/27 04:12:52;;;;;;;;;;;;;;;5.21;80.72;99957.84;1797128;79;20192;-42
2021/01/27 04:15:19;;;;;;;;;;;;;;;5.21;80.60;99960.02;1804112;80;20178;-38
2021/01/27 04:17:47;;;;;;;;;;;;;;;5.23;80.48;99954.81;1803842;80;20508;-39
2021/01/27 04:20:15;;;;;;;;;;;;;;;5.24;80.36;99947.45;1804156;80;20135;-40
2021/01/27 04:22:43;;;;;;;;;;;;;;;5.24;80.29;99940.08;1804193;80;20150;-39
2021/01/27 04:25:13;;;;;;;;;;;;;;;5.21;80.26;99934.02;1804047;80;20182;-38
2021/01/27 04:27:40;;;;;;;;;;;;;;;5.19;80.26;99944.86;1804167;80;20162;-40
2021/01/27 04:30:09;;;;;;;;;;;;;;;5.18;80.32;99936.66;1803882;80;20198;-38
2021/01/27 04:32:37;;;;;;;;;;;;;;;5.20;80.35;99934.03;1803866;80;20472;-40
2021/01/27 04:35:07;;;;;;;;;;;;;;;5.19;80.34;99929.70;1804979;78;20139;-39
2021/01/27 04:37:34;;;;;;;;;;;;;;;5.16;80.31;99929.73;1803932;80;20131;-40
2021/01/27 04:40:05;;;;;;;;;;;;;;;5.13;80.35;99927.14;1804055;80;20451;-41
2021/01/27 04:42:33;;;;;;;;;;;;;;;5.09;80.46;99928.92;1803376;79;20140;-40
2021/01/27 04:45:01;;;;;;;;;;;;;;;5.05;80.54;99925.06;1804505;78;20232;-39
2021/01/27 04:47:32;;;;;;;;;;;;;;;5.03;80.67;99930.27;1829034;78;20240;-40
2021/01/27 04:50:03;;;;;;;;;;;;;;;5.01;80.73;99929.83;1804050;80;20239;-40
2021/01/27 04:52:52;;;;;;;;;;;;;;;4.98;80.83;99935.06;1804018;80;20125;-38
2021/01/27 04:55:26;;;;;;;;;;;;;;;4.92;80.92;99929.48;1803962;80;20149;-39
2021/01/27 04:58:15;;;;;;;;;;;;;;;4.87;81.11;99922.56;1804211;78;20156;-39
2021/01/27 05:00:53;;;;;;;;;;;;;;;4.82;81.25;99916.11;1813094;78;20156;-41
2021/01/27 05:03:34;;;;;;;;;;;;;;;4.77;81.46;99907.48;1814595;78;20273;-39
2021/01/27 05:06:03;;;;;;;;;;;;;;;4.72;81.65;99902.33;1805815;78;20208;-40
2021/01/27 05:08:33;;;;;;;;;;;;;;;4.68;81.87;99903.20;1805250;78;20468;-39
2021/01/27 05:11:05;;;;;;;;;;;;;;;4.64;82.01;99904.53;1804117;78;20818;-39
2021/01/27 05:13:37;;;;;;;;;;;;;;;4.60;82.29;99898.48;1810299;78;20138;-39
2021/01/27 05:16:11;;;;;;;;;;;;;;;4.60;82.50;99901.08;1821209;78;20180;-41
2021/01/27 05:18:39;;;;;;;;;;;;;;;4.58;82.62;99904.14;1820859;78;20143;-40
2021/01/27 05:21:12;;;;;;;;;;;;;;;4.56;82.70;99911.06;1808234;78;20143;-41
2021/01/27 05:23:40;;;;;;;;;;;;;;;4.52;82.82;99904.17;1783477;80;20143;-40
2021/01/27 05:26:11;;;;;;;;;;;;;;;4.49;83.01;99904.17;1803626;80;20182;-39
2021/01/27 05:28:41;;;;;;;;;;;;;;;4.48;83.18;99901.14;1803552;80;20143;-41
2021/01/27 05:31:08;;;;;;;;;;;;;;;4.47;83.33;99899.41;1805722;78;20134;-40
2021/01/27 05:33:51;;;;;;;;;;;;;;;4.48;83.51;99901.14;1805828;78;20442;-40
2021/01/27 05:36:26;;;;;;;;;;;;;;;4.52;83.61;99902.87;1814523;78;20232;-39
2021/01/27 05:39:10;;;;;;;;;;;;;;;4.58;83.63;99916.25;1810164;78;20187;-40
2021/01/27 05:41:37;;;;;;;;;;;;;;;4.60;83.54;99916.66;1809896;78;20195;-41
2021/01/27 05:44:07;;;;;;;;;;;;;;;4.63;83.56;99907.56;1807490;78;20166;-42
2021/01/27 05:46:36;;;;;;;;;;;;;;;4.68;83.55;99911.42;1813920;78;20199;-49
2021/01/27 05:49:04;;;;;;;;;;;;;;;4.69;83.55;99902.34;1805965;78;20234;-42
2021/01/27 05:51:34;;;;;;;;;;;;;;;4.76;83.51;99900.13;1784312;78;20222;-41
2021/01/27 05:54:24;;;;;;;;;;;;;;;4.80;83.42;99893.17;1806611;78;20194;-43
2021/01/27 05:56:53;;;;;;;;;;;;;;;4.85;83.32;99887.53;1794371;78;20135;-43
2021/01/27 05:59:23;;;;;;;;;;;;;;;4.91;83.20;99885.33;1807810;78;20125;-43
2021/01/27 06:02:01;;;;;;;;;;;;;;;4.94;83.11;99873.17;1805085;78;20284;-41
2021/01/27 06:04:31;;;;;;;;;;;;;;;4.99;82.94;99875.28;1811681;78;20464;-43
2021/01/27 06:07:07;;;;;;;;;;;;;;;5.05;82.74;99867.91;1810549;78;20210;-42
2021/01/27 06:09:42;;;;;;;;;;;;;;;5.09;82.61;99874.80;1806714;78;20188;-43
2021/01/27 06:12:23;;;;;;;;;;;;;;;5.11;82.48;99876.52;1814283;78;20293;-42
2021/01/27 06:15:08;;;;;;;;;;;;;;;5.12;82.44;99871.72;1809960;78;20317;-43
2021/01/27 06:17:50;;;;;;;;;;;;;;;5.13;82.40;99876.05;1804010;77;20198;-40
2021/01/27 06:20:33;;;;;;;;;;;;;;;5.16;82.42;99868.25;1826461;77;20153;-41
2021/01/27 06:26:56;;;;;;;;;;;;;;;5.30;82.42;99876.36;1897839;74;20180;-44
2021/01/27 06:29:33;;;;;;;;;;;;;;;5.27;82.37;99880.27;1871341;75;20222;-43
2021/01/27 06:32:21;;;;;;;;;;;;;;;5.26;82.33;99866.41;1869360;75;20135;-40
2021/01/27 06:35:22;;;;;;;;;;;;;;;5.28;82.35;99871.61;1867160;75;20391;-42
2021/01/27 06:38:02;;;;;;;;;;;;;;;5.29;82.31;99872.03;1881272;75;20127;-43
2021/01/27 06:40:50;;;;;;;;;;;;;;;5.28;82.33;99872.91;1837340;75;20208;-43
2021/01/27 06:43:33;;;;;;;;;;;;;;;5.29;82.40;99870.30;1867806;77;20174;-51
2021/01/27 06:46:31;;;;;;;;;;;;;;;5.31;82.41;99865.09;1868996;75;20230;-40
2021/01/27 06:49:24;;;;;;;;;;;;;;;5.33;82.43;99858.13;1875776;75;20197;-41
2021/01/27 06:52:10;;;;;;;;;;;;;;;;;;1874829;75;20449;-42
2021/01/27 06:54:41;;;;;;;;;;;;;;;5.35;82.59;99856.39;1873912;75;20423;-40
2021/01/27 06:57:24;;;;;;;;;;;;;;;5.35;82.59;99855.95;1872065;75;20191;-42
2021/01/27 07:00:05;;;;;;;;;;;;;;;5.36;82.65;99861.58;1824745;75;20277;-42
2021/01/27 07:02:51;;;;;;;;;;;;;;;5.36;82.65;99858.11;1874204;75;20189;-43
2021/01/27 07:05:35;;;;;;;;;;;;;;;5.37;82.66;99865.05;1819719;77;20266;-43
2021/01/27 07:08:28;;;;;;;;;;;;;;;5.35;82.69;99866.34;1771384;78;20299;-42
2021/01/27 07:11:13;;;;;;;;;;;;;;;5.35;82.72;99862.45;1793786;77;20216;-42
2021/01/27 07:14:09;;;;;;;;;;;;;;;5.38;82.74;99865.47;1811995;78;20200;-41
2021/01/27 07:16:50;;;;;;;;;;;;;;;5.44;82.71;99870.61;1813273;77;20187;-42
2021/01/27 07:19:31;;;;;;;;;;;;;;;5.50;82.57;99860.16;1815526;78;20279;-44
2021/01/27 07:22:30;;;;;;;;;;;;;;;5.56;82.44;99862.69;1793969;79;20200;-42
2021/01/27 07:25:05;;;;;;;;;;;;;;;5.66;82.25;99867.34;1812617;78;20453;-45
2021/01/27 07:27:34;;;;;;;;;;;;;;;5.81;81.60;99844.65;1808696;78;20219;-41
2021/01/27 07:30:09;;;;;;;;;;;;;;;6.12;80.08;99856.02;1807245;78;20321;-43
2021/01/27 07:32:49;;;;;;;;;;;;;;;6.41;78.81;99859.13;1812654;78;20216;-42
2021/01/27 07:35:20;;;;;;;;;;;;;;;6.58;77.63;99865.39;1807437;78;20135;-45
2021/01/27 07:37:57;;;;;;;;;;;;;;;6.72;76.03;99869.53;1803417;80;20650;-43
2021/01/27 07:40:30;;;;;;;;;;;;;;;6.85;74.82;99853.28;1811845;78;20311;-43
2021/01/27 07:43:16;;;;;;;;;;;;;;;6.95;73.87;99853.58;1792405;78;20375;-43
2021/01/27 07:45:48;;;;;;;;;;;;;;;7.03;73.46;99854.29;1806929;78;20189;-44
2021/01/27 07:48:20;;;;;;;;;;;;;;;7.06;73.16;99850.79;1808171;78;20282;-42
2021/01/27 07:51:00;;;;;;;;;;;;;;;7.08;72.61;99847.28;1813241;78;20444;-44
2021/01/27 07:53:39;;;;;;;;;;;;;;;7.12;72.48;99851.55;1826750;77;20386;-42
2021/01/27 07:56:16;;;;;;;;;;;;;;;7.13;72.09;99851.97;1830155;77;20268;-50
2021/01/27 07:58:57;;;;;;;;;;;;;;;7.15;72.02;99843.66;1833049;77;20190;-42
2021/01/27 08:01:41;;;;;;;;;;;;;;;7.16;71.94;99845.83;1824516;78;20210;-41
2021/01/27 08:04:18;;;;;;;;;;;;;;;7.13;71.90;99840.68;1814101;78;20462;-45
2021/01/27 08:06:53;;;;;;;;;;;;;;;7.12;72.03;99833.74;1816650;78;20162;-44
2021/01/27 08:09:38;;;;;;;;;;;;;;;7.12;72.01;99845.47;1820970;78;20364;-43
2021/01/27 08:12:22;;;;;;;;;;;;;;;7.14;72.07;99829.38;1812961;78;20241;-44
2021/01/27 08:15:11;;;;;;;;;;;;;;;7.16;72.16;99836.70;1805471;78;20159;-44
2021/01/27 08:17:58;;;;;;;;;;;;;;;7.16;72.33;99834.96;1795168;78;20184;-44
2021/01/27 08:20:36;;;;;;;;;;;;;;;7.17;72.24;99840.59;1782380;78;20146;-43
2021/01/27 08:23:07;;;;;;;;;;;;;;;7.21;72.00;99841.42;1825252;78;20140;-43
2021/01/27 08:25:50;;;;;;;;;;;;;;;7.22;71.76;99839.68;1815626;78;20269;-43
2021/01/27 08:28:40;;;;;;;;;;;;;;;7.25;71.63;99832.65;1813000;78;20279;-45
2021/01/27 08:31:18;;;;;;;;;;;;;;;7.27;71.27;99830.02;1810582;78;20283;-42
2021/01/27 08:33:57;;;;;;;;;;;;;;;7.28;71.13;99835.66;1810194;78;20168;-43
2021/01/27 08:36:37;;;;;;;;;;;;;;;7.28;71.10;99836.52;1813200;78;20299;-43
2021/01/27 08:39:12;;;;;;;;;;;;;;;7.28;70.94;99839.13;1814397;78;20182;-44
2021/01/27 08:41:51;;;;;;;;;;;;;;;7.28;70.96;99831.75;1816303;78;20194;-42
2021/01/27 08:44:25;;;;;;;;;;;;;;;7.27;70.74;99838.70;1814578;78;20261;-43
2021/01/27 08:47:04;;;;;;;;;;;;;;;7.26;70.68;99823.95;1812505;78;20185;-44
2021/01/27 08:49:47;;;;;;;;;;;;;;;7.26;70.42;99827.00;1813481;78;20178;-44
2021/01/27 08:52:20;;;;;;;;;;;;;;;7.25;70.51;99822.66;1813198;78;20166;-42
2021/01/27 08:54:50;;;;;;;;;;;;;;;7.22;70.78;99821.43;1824130;78;20285;-43
2021/01/27 08:57:28;;;;;;;;;;;;;;;7.19;71.02;99821.03;1815703;78;20198;-42
2021/01/27 09:00:21;;;;;;;;;;;;;;;7.17;71.18;99811.92;1815701;78;20135;-43
2021/01/27 09:03:04;;;;;;;;;;;;;;;7.17;71.19;99811.92;1781205;78;20183;-43
2021/01/27 09:05:36;;;;;;;;;;;;;;;7.17;71.54;99813.66;1806324;78;20121;-41
2021/01/27 09:08:21;;;;;;;;;;;;;;;7.14;71.68;99815.91;1814623;78;20479;-43
2021/01/27 09:10:57;;;;;;;;;;;;;;;7.14;71.92;99807.22;1813937;78;20213;-43
2021/01/27 09:13:38;;;;;;;;;;;;;;;7.14;72.15;99809.83;1811394;78;20214;-50
2021/01/27 09:16:15;;;;;;;;;;;;;;;7.15;72.05;99813.69;1814050;78;20206;-44
2021/01/27 09:18:46;;;;;;;;;;;;;;;7.16;72.06;99798.47;1811691;78;21074;-44
2021/01/27 09:21:16;;;;;;;;;;;;;;;7.17;72.15;99796.72;1811537;78;20151;-46
2021/01/27 09:23:46;;;;;;;;;;;;;;;7.17;72.27;99804.55;1775848;78;20342;-44
2021/01/27 09:26:19;;;;;;;;;;;;;;;7.16;72.51;99801.08;1773643;78;20157;-45
2021/01/27 09:28:47;;;;;;;;;;;;;;;7.16;72.80;99800.21;1811611;78;20477;-42
2021/01/27 09:31:18;;;;;;;;;;;;;;;7.17;73.09;99800.63;1809113;78;20178;-43
2021/01/27 09:33:46;;;;;;;;;;;;;;;7.21;73.22;99795.80;1813056;78;20218;-43
2021/01/27 09:36:23;;;;;;;;;;;;;;;7.24;73.32;99794.87;1799766;78;20182;-44
2021/01/27 09:38:58;;;;;;;;;;;;;;;7.26;73.34;99798.32;1793978;78;20501;-45
2021/01/27 09:41:28;;;;;;;;;;;;;;;7.29;73.09;99787.37;1814459;78;20202;-43
2021/01/27 09:43:57;;;;;;;;;;;;;;;7.33;73.09;99779.94;1828869;78;20806;-44
2021/01/27 09:46:33;;;;;;;;;;;;;;;7.35;73.06;99772.92;1816704;78;20454;-43
2021/01/27 09:49:10;;;;;;;;;;;;;;;7.38;72.67;99766.36;1774760;78;20175;-44
2021/01/27 09:51:50;;;;;;;;;;;;;;;7.41;72.62;99761.55;1795986;77;20192;-44
2021/01/27 09:54:21;;;;;;;;;;;;;;;7.44;72.67;99767.55;1829660;77;20187;-44
2021/01/27 09:56:53;;;;;;;;;;;;;;;7.48;72.70;99780.94;1827295;77;20277;-43
2021/01/27 09:59:21;;;;;;;;;;;;;;;7.53;72.79;99781.73;1827146;77;20205;-44
2021/01/27 10:01:49;;;;;;;;;;;;;;;7.59;72.81;99775.53;1803752;78;20283;-43
2021/01/27 10:04:32;;;;;;;;;;;;;;;7.61;72.83;99777.68;1805556;78;20188;-43
2021/01/27 10:07:12;;;;;;;;;;;;;;;7.61;72.86;99768.55;1803372;78;20291;-45
2021/01/27 10:09:52;;;;;;;;;;;;;;;7.64;72.86;99772.83;1804171;78;20174;-43
2021/01/27 10:12:27;;;;;;;;;;;;;;;7.65;72.76;99772.80;1813037;78;20200;-43
2021/01/27 10:15:21;;;;;;;;;;;;;;;7.66;72.66;99771.92;1804860;78;20492;-44
2021/01/27 10:17:52;;;;;;;;;;;;;;;7.68;72.45;99779.72;1809183;78;20224;-41
2021/01/27 10:20:29;;;;;;;;;;;;;;;7.70;72.44;99767.05;1804482;78;20190;-44
2021/01/27 10:26:56;;;;;;;;;;;;;;;7.78;72.58;99761.67;1894984;74;20270;-44
2021/01/27 10:29:27;;;;;;;;;;;;;;;7.75;72.69;99756.50;1863693;75;20301;-43
2021/01/27 10:31:56;;;;;;;;;;;;;;;7.76;72.68;99764.75;1825004;75;20210;-43
2021/01/27 10:34:42;;;;;;;;;;;;;;;7.79;72.71;99762.09;1876881;75;20217;-43
2021/01/27 10:37:43;;;;;;;;;;;;;;;7.80;72.73;99762.07;1812995;75;20467;-44
2021/01/27 10:40:29;;;;;;;;;;;;;;;7.82;72.81;99765.92;1868383;75;20156;-44
2021/01/27 10:43:00;;;;;;;;;;;;;;;7.81;72.79;99759.84;1871517;75;20168;-43
2021/01/27 10:45:34;;;;;;;;;;;;;;;7.84;72.84;99755.88;1877064;75;20171;-43
2021/01/27 10:48:15;;;;;;;;;;;;;;;7.86;72.69;99757.17;1869844;75;20308;-42
2021/01/27 10:50:47;;;;;;;;;;;;;;;7.90;72.65;99760.98;1839472;75;20188;-43
2021/01/27 10:53:18;;;;;;;;;;;;;;;7.95;72.24;99760.87;1868826;75;20176;-44
2021/01/27 10:55:49;;;;;;;;;;;;;;;8.00;72.02;99771.66;1869724;75;20180;-44
2021/01/27 10:58:22;;;;;;;;;;;;;;;8.05;71.75;99757.63;1849535;75;20186;-43
2021/01/27 11:00:53;;;;;;;;;;;;;;;8.06;71.70;99765.88;1841393;75;20296;-44
2021/01/27 11:03:28;;;;;;;;;;;;;;;8.06;71.54;99761.97;1833938;75;20199;-45
2021/01/27 11:06:02;;;;;;;;;;;;;;;8.08;71.47;99758.41;1823241;75;20203;-44
2021/01/27 11:08:35;;;;;;;;;;;;;;;8.09;71.49;99761.88;1850448;75;20162;-43
2021/01/27 11:11:52;;;;;;;;;;;;;;;8.09;71.57;99760.58;1778841;78;20194;-44
2021/01/27 11:14:26;;;;;;;;;;;;;;;8.09;71.51;99749.69;1750494;78;20125;-43
2021/01/27 11:16:55;;;;;;;;;;;;;;;8.11;71.34;99753.58;1812409;78;20283;-43
2021/01/27 11:19:25;;;;;;;;;;;;;;;8.13;71.31;99745.28;1787871;78;20513;-44
2021/01/27 11:21:53;;;;;;;;;;;;;;;8.15;71.00;99743.03;1806239;78;20196;-43
2021/01/27 11:24:22;;;;;;;;;;;;;;;8.17;70.82;99743.00;1805084;78;20305;-44
2021/01/27 11:26:50;;;;;;;;;;;;;;;8.18;70.58;99741.67;1803542;78;20308;-43
2021/01/27 11:29:17;;;;;;;;;;;;;;;8.20;70.37;99734.67;1802141;78;20224;-43
2021/01/27 11:31:45;;;;;;;;;;;;;;;8.24;70.13;99734.14;1829352;77;20145;-41
2021/01/27 11:34:13;;;;;;;;;;;;;;;8.27;69.83;99736.22;1829018;77;20483;-44
2021/01/27 11:36:41;;;;;;;;;;;;;;;8.30;69.71;99737.50;1828593;77;20192;-45
2021/01/27 11:39:09;;;;;;;;;;;;;;;8.33;69.51;99741.81;1827394;77;20247;-43
2021/01/27 11:41:37;;;;;;;;;;;;;;;8.35;69.39;99740.86;1828636;77;20188;-43
2021/01/27 11:44:07;;;;;;;;;;;;;;;8.37;69.32;99729.08;1825307;77;20177;-44
2021/01/27 11:46:34;;;;;;;;;;;;;;;8.39;69.24;99732.53;1825902;77;20501;-44
2021/01/27 11:49:03;;;;;;;;;;;;;;;8.42;69.38;99740.72;1831178;77;20311;-43
2021/01/27 11:51:31;;;;;;;;;;;;;;;8.43;69.22;99728.94;1828552;77;20287;-43
2021/01/27 11:53:59;;;;;;;;;;;;;;;8.47;69.04;99729.73;1830292;77;20275;-42
2021/01/27 11:56:27;;;;;;;;;;;;;;;8.49;68.79;99725.31;1829020;77;20263;-43
2021/01/27 11:58:55;;;;;;;;;;;;;;;8.53;68.70;99731.76;1824736;77;20177;-43
2021/01/27 12:01:28;;;;;;;;;;;;;;;8.55;68.58;99735.17;1833639;77;20201;-44
2021/01/27 12:03:58;;;;;;;;;;;;;;;8.57;68.20;99734.70;1828910;77;20494;-43
2021/01/27 12:06:40;;;;;;;;;;;;;;;8.60;67.99;99729.86;1798307;77;20458;-41
2021/01/27 12:09:17;;;;;;;;;;;;;;;8.62;68.02;99730.66;1797777;77;20178;-44
2021/01/27 12:11:46;;;;;;;;;;;;;;;8.62;67.94;99737.19;1826123;77;20174;-44
2021/01/27 12:14:14;;;;;;;;;;;;;;;8.61;68.16;99739.39;1833638;77;20314;-43
2021/01/27 12:16:45;;;;;;;;;;;;;;;8.60;68.04;99733.78;1819032;77;20146;-44
2021/01/27 12:19:16;;;;;;;;;;;;;;;8.58;67.62;99725.11;1781418;78;20175;-44
2021/01/27 12:21:44;;;;;;;;;;;;;;;8.57;67.34;99722.08;1816267;77;20157;-45
2021/01/27 12:24:13;;;;;;;;;;;;;;;8.56;67.05;99712.52;1810545;78;20472;-43
2021/01/27 12:26:47;;;;;;;;;;;;;;;8.55;67.10;99714.27;1816852;77;20196;-44
2021/01/27 12:29:17;;;;;;;;;;;;;;;8.57;66.72;99711.63;1821660;77;20190;-43
2021/01/27 12:31:45;;;;;;;;;;;;;;;8.60;66.71;99711.09;1810481;77;20188;-43
2021/01/27 12:34:13;;;;;;;;;;;;;;;8.62;66.41;99713.23;1817134;78;20315;-44
2021/01/27 12:36:43;;;;;;;;;;;;;;;8.62;66.33;99708.00;1835222;77;20685;-42
2021/01/27 12:39:11;;;;;;;;;;;;;;;8.64;66.56;99709.28;1832250;77;20261;-43
2021/01/27 12:41:40;;;;;;;;;;;;;;;8.63;66.69;99709.73;1822203;77;20223;-43
2021/01/27 12:44:07;;;;;;;;;;;;;;;8.62;66.92;99706.70;1826855;77;20124;-43
2021/01/27 12:46:35;;;;;;;;;;;;;;;8.59;67.09;99708.09;1804027;79;20487;-43
2021/01/27 12:49:03;;;;;;;;;;;;;;;8.58;67.31;99704.20;1806560;79;20207;-44
2021/01/27 12:51:31;;;;;;;;;;;;;;;8.57;67.55;99703.34;1812061;78;20190;-42
2021/01/27 12:54:01;;;;;;;;;;;;;;;8.55;67.95;99696.43;1806902;78;20277;-42
2021/01/27 12:56:31;;;;;;;;;;;;;;;8.52;68.35;99700.00;1808088;78;20206;-43
2021/01/27 12:58:59;;;;;;;;;;;;;;;8.48;68.94;99702.70;1811902;78;20179;-43
2021/01/27 13:01:28;;;;;;;;;;;;;;;8.38;69.49;99708.16;1811129;78;20293;-43
2021/01/27 13:04:05;;;;;;;;;;;;;;;8.28;70.09;99704.00;1774737;78;20500;-42
2021/01/27 13:06:42;;;;;;;;;;;;;;;8.19;70.73;99704.23;1764410;78;20504;-44
2021/01/27 13:09:11;;;;;;;;;;;;;;;8.10;71.28;99710.95;1808354;78;20224;-42
2021/01/27 13:11:40;;;;;;;;;;;;;;;8.03;71.74;99702.84;1790158;78;20158;-45
2021/01/27 13:14:10;;;;;;;;;;;;;;;7.98;72.05;99700.79;1763240;78;20338;-41
2021/01/27 13:16:39;;;;;;;;;;;;;;;7.92;72.32;99693.09;1811435;78;20445;-45
2021/01/27 13:19:07;;;;;;;;;;;;;;;7.87;72.52;99682.77;1805340;78;20344;-43
2021/01/27 13:21:35;;;;;;;;;;;;;;;7.83;72.72;99679.80;1806607;78;20202;-41
2021/01/27 13:24:04;;;;;;;;;;;;;;;7.79;72.91;99685.98;1807435;78;20210;-43
2021/01/27 13:26:32;;;;;;;;;;;;;;;7.73;73.02;99681.34;1809629;78;20160;-43
2021/01/27 13:29:00;;;;;;;;;;;;;;;7.69;73.12;99689.66;1805937;78;20196;-44
2021/01/27 13:31:28;;;;;;;;;;;;;;;7.66;73.24;99687.58;1803968;78;20455;-43
2021/01/27 13:33:57;;;;;;;;;;;;;;;7.59;73.29;99681.19;1808737;78;20571;-45
2021/01/27 13:36:25;;;;;;;;;;;;;;;7.55;73.41;99676.91;1810166;78;20991;-42
2021/01/27 13:38:55;;;;;;;;;;;;;;;7.50;73.46;99672.23;1805515;78;20198;-45
2021/01/27 13:41:22;;;;;;;;;;;;;;;7.47;73.53;99666.24;1810042;78;20200;-43